createdAt,value
2019-03-27T00:00:13.175Z,1014.67
2019-03-27T00:01:13.164Z,1014.63
2019-03-27T00:02:13.152Z,1014.60
2019-03-27T00:03:13.143Z,1014.63
2019-03-27T00:04:13.134Z,1014.63
2019-03-27T00:05:13.138Z,1014.63
2019-03-27T00:06:13.108Z,1014.61
2019-03-27T00:07:13.098Z,1014.65
2019-03-27T00:08:13.092Z,1014.59
2019-03-27T00:09:13.101Z,1014.60
2019-03-27T00:10:13.061Z,1014.58
2019-03-27T00:11:16.036Z,1014.53
2019-03-27T00:12:13.040Z,1014.57
2019-03-27T00:13:13.029Z,1014.56
2019-03-27T00:14:13.017Z,1014.59
2019-03-27T00:15:13.928Z,1014.58
2019-03-27T00:16:12.995Z,1014.58
2019-03-27T00:17:12.984Z,1014.59
2019-03-27T00:18:12.974Z,1014.56
2019-03-27T00:19:12.961Z,1014.55
2019-03-27T00:20:12.955Z,1014.57
2019-03-27T00:21:12.954Z,1014.58
2019-03-27T00:22:12.926Z,1014.58
2019-03-27T00:23:12.917Z,1014.56
2019-03-27T00:24:12.905Z,1014.53
2019-03-27T00:25:12.894Z,1014.56
2019-03-27T00:26:12.910Z,1014.54
2019-03-27T00:27:12.876Z,1014.56
2019-03-27T00:28:12.863Z,1014.57
2019-03-27T00:29:12.849Z,1014.59
2019-03-27T00:30:12.840Z,1014.62
2019-03-27T00:31:12.828Z,1014.56
2019-03-27T00:32:12.846Z,1014.61
2019-03-27T00:33:12.804Z,1014.56
2019-03-27T00:34:12.794Z,1014.59
2019-03-27T00:35:12.783Z,1014.60
2019-03-27T00:36:12.770Z,1014.56
2019-03-27T00:37:12.766Z,1014.62
2019-03-27T00:38:12.779Z,1014.59
2019-03-27T00:39:12.738Z,1014.55
2019-03-27T00:40:12.741Z,1014.62
2019-03-27T00:41:12.718Z,1014.65
2019-03-27T00:42:12.704Z,1014.65
2019-03-27T00:43:13.685Z,1014.63
2019-03-27T00:44:12.711Z,1014.69
2019-03-27T00:45:25.411Z,1014.68
2019-03-27T00:46:13.727Z,1014.65
2019-03-27T00:47:12.649Z,1014.66
2019-03-27T00:48:12.647Z,1014.70
2019-03-27T00:49:12.623Z,1014.65
2019-03-27T00:50:12.638Z,1014.69
2019-03-27T00:51:12.601Z,1014.69
2019-03-27T00:52:12.589Z,1014.68
2019-03-27T00:53:12.578Z,1014.71
2019-03-27T00:54:12.567Z,1014.71
2019-03-27T00:55:12.554Z,1014.67
2019-03-27T00:56:12.560Z,1014.62
2019-03-27T00:57:12.531Z,1014.71
2019-03-27T00:58:12.523Z,1014.65
2019-03-27T00:59:12.510Z,1014.69
2019-03-27T01:00:12.502Z,1014.69
2019-03-27T01:01:12.522Z,1014.70
2019-03-27T01:02:12.476Z,1014.74
2019-03-27T01:03:12.518Z,1014.72
2019-03-27T01:04:12.454Z,1014.76
2019-03-27T01:05:12.444Z,1014.72
2019-03-27T01:06:12.433Z,1014.74
2019-03-27T01:07:12.447Z,1014.66
2019-03-27T01:08:12.410Z,1014.72
2019-03-27T01:09:12.406Z,1014.73
2019-03-27T01:10:12.387Z,1014.72
2019-03-27T01:11:12.383Z,1014.73
2019-03-27T01:12:12.364Z,1014.76
2019-03-27T01:13:12.368Z,1014.71
2019-03-27T01:14:12.342Z,1014.73
2019-03-27T01:15:12.329Z,1014.73
2019-03-27T01:16:12.318Z,1014.73
2019-03-27T01:17:12.308Z,1014.75
2019-03-27T01:18:12.328Z,1014.70
2019-03-27T01:19:12.285Z,1014.69
2019-03-27T01:20:12.275Z,1014.66
2019-03-27T01:21:12.262Z,1014.66
2019-03-27T01:22:12.252Z,1014.71
2019-03-27T01:23:12.239Z,1014.69
2019-03-27T01:24:12.258Z,1014.66
2019-03-27T01:25:12.219Z,1014.71
2019-03-27T01:26:12.209Z,1014.73
2019-03-27T01:27:12.193Z,1014.73
2019-03-27T01:28:12.187Z,1014.71
2019-03-27T01:29:12.196Z,1014.70
2019-03-27T01:30:12.174Z,1014.72
2019-03-27T01:31:12.148Z,1014.72
2019-03-27T01:32:12.137Z,1014.66
2019-03-27T01:33:12.126Z,1014.72
2019-03-27T01:34:12.116Z,1014.66
2019-03-27T01:35:12.135Z,1014.69
2019-03-27T01:36:12.093Z,1014.67
2019-03-27T01:37:12.084Z,1014.71
2019-03-27T01:38:12.068Z,1014.68
2019-03-27T01:39:12.060Z,1014.72
2019-03-27T01:40:12.047Z,1014.73
2019-03-27T01:41:12.063Z,1014.70
2019-03-27T01:42:12.023Z,1014.69
2019-03-27T01:43:12.016Z,1014.74
2019-03-27T01:44:12.001Z,1014.71
2019-03-27T01:45:11.990Z,1014.72
2019-03-27T01:46:11.978Z,1014.75
2019-03-27T01:47:11.992Z,1014.74
2019-03-27T01:48:11.957Z,1014.74
2019-03-27T01:49:11.981Z,1014.74
2019-03-27T01:50:21.241Z,1014.76
2019-03-27T01:51:20.278Z,1014.79
2019-03-27T01:52:19.568Z,1014.78
2019-03-27T01:53:20.355Z,1014.78
2019-03-27T01:54:21.395Z,1014.82
2019-03-27T01:55:20.434Z,1014.75
2019-03-27T01:56:21.471Z,1014.78
2019-03-27T01:57:11.852Z,1014.82
2019-03-27T01:58:11.858Z,1014.79
2019-03-27T01:59:11.856Z,1014.81
2019-03-27T02:00:11.820Z,1014.83
2019-03-27T02:01:11.809Z,1014.82
2019-03-27T02:02:11.798Z,1014.78
2019-03-27T02:03:11.808Z,1014.80
2019-03-27T02:04:11.773Z,1014.84
2019-03-27T02:05:11.762Z,1014.82
2019-03-27T02:06:11.751Z,1014.80
2019-03-27T02:07:11.739Z,1014.81
2019-03-27T02:08:11.821Z,1014.79
2019-03-27T02:09:11.717Z,1014.81
2019-03-27T02:10:11.704Z,1014.85
2019-03-27T02:11:11.696Z,1014.83
2019-03-27T02:12:11.684Z,1014.84
2019-03-27T02:13:11.678Z,1014.89
2019-03-27T02:14:11.689Z,1014.93
2019-03-27T02:15:11.651Z,1014.87
2019-03-27T02:16:11.644Z,1014.92
2019-03-27T02:17:11.627Z,1014.91
2019-03-27T02:18:11.619Z,1014.91
2019-03-27T02:19:11.609Z,1014.94
2019-03-27T02:20:11.610Z,1014.93
2019-03-27T02:21:11.582Z,1014.89
2019-03-27T02:22:11.570Z,1014.95
2019-03-27T02:23:11.562Z,1014.90
2019-03-27T02:24:11.548Z,1014.87
2019-03-27T02:25:11.567Z,1014.85
2019-03-27T02:26:11.527Z,1014.86
2019-03-27T02:27:11.514Z,1014.83
2019-03-27T02:28:11.502Z,1014.88
2019-03-27T02:29:11.491Z,1014.87
2019-03-27T02:30:11.485Z,1014.85
2019-03-27T02:31:11.489Z,1014.85
2019-03-27T02:32:11.466Z,1014.84
2019-03-27T02:33:11.446Z,1014.84
2019-03-27T02:34:11.479Z,1014.89
2019-03-27T02:35:11.432Z,1014.85
2019-03-27T02:36:11.448Z,1014.87
2019-03-27T02:37:11.401Z,1014.93
2019-03-27T02:38:11.390Z,1014.99
2019-03-27T02:39:11.383Z,1014.94
2019-03-27T02:40:11.371Z,1014.94
2019-03-27T02:41:11.355Z,1014.95
2019-03-27T02:42:11.370Z,1014.96
2019-03-27T02:43:11.336Z,1014.98
2019-03-27T02:44:11.406Z,1015.03
2019-03-27T02:45:11.326Z,1015.06
2019-03-27T02:46:23.658Z,1015.06
2019-03-27T02:47:12.313Z,1015.04
2019-03-27T02:48:13.974Z,1015.01
2019-03-27T02:49:11.265Z,1014.99
2019-03-27T02:50:11.259Z,1015.05
2019-03-27T02:51:11.245Z,1015.03
2019-03-27T02:52:11.233Z,1015.04
2019-03-27T02:53:11.246Z,1015.04
2019-03-27T02:54:11.210Z,1015.04
2019-03-27T02:55:11.209Z,1015.00
2019-03-27T02:56:11.185Z,1015.04
2019-03-27T02:57:11.176Z,1015.03
2019-03-27T02:58:11.168Z,1015.04
2019-03-27T02:59:11.170Z,1015.04
2019-03-27T03:00:11.166Z,1014.98
2019-03-27T03:01:11.135Z,1015.01
2019-03-27T03:02:11.119Z,1014.99
2019-03-27T03:03:11.112Z,1014.97
2019-03-27T03:04:11.124Z,1014.98
2019-03-27T03:05:11.114Z,1014.93
2019-03-27T03:06:11.075Z,1014.98
2019-03-27T03:07:11.062Z,1014.97
2019-03-27T03:08:11.051Z,1015.00
2019-03-27T03:09:11.039Z,1014.98
2019-03-27T03:10:11.045Z,1015.02
2019-03-27T03:11:11.015Z,1015.06
2019-03-27T03:12:11.004Z,1015.06
2019-03-27T03:13:10.995Z,1015.05
2019-03-27T03:14:10.984Z,1015.00
2019-03-27T03:15:11.005Z,1015.07
2019-03-27T03:16:10.960Z,1015.07
2019-03-27T03:17:10.952Z,1015.08
2019-03-27T03:18:10.945Z,1015.05
2019-03-27T03:19:10.924Z,1015.07
2019-03-27T03:20:10.930Z,1015.09
2019-03-27T03:21:10.916Z,1015.08
2019-03-27T03:22:10.896Z,1015.08
2019-03-27T03:23:10.897Z,1015.09
2019-03-27T03:24:10.881Z,1015.08
2019-03-27T03:25:10.877Z,1015.09
2019-03-27T03:26:10.852Z,1015.15
2019-03-27T03:27:10.832Z,1015.15
2019-03-27T03:28:10.823Z,1015.17
2019-03-27T03:29:10.810Z,1015.22
2019-03-27T03:30:10.833Z,1015.22
2019-03-27T03:31:10.790Z,1015.21
2019-03-27T03:32:10.781Z,1015.17
2019-03-27T03:33:10.773Z,1015.22
2019-03-27T03:34:10.763Z,1015.28
2019-03-27T03:35:10.760Z,1015.26
2019-03-27T03:36:10.749Z,1015.26
2019-03-27T03:37:10.722Z,1015.23
2019-03-27T03:38:10.715Z,1015.25
2019-03-27T03:39:10.697Z,1015.25
2019-03-27T03:40:10.684Z,1015.30
2019-03-27T03:41:10.709Z,1015.30
2019-03-27T03:42:10.665Z,1015.29
2019-03-27T03:43:10.654Z,1015.23
2019-03-27T03:44:10.643Z,1015.23
2019-03-27T03:45:10.627Z,1015.28
2019-03-27T03:46:10.619Z,1015.28
2019-03-27T03:47:10.624Z,1015.28
2019-03-27T03:48:10.599Z,1015.33
2019-03-27T03:49:10.584Z,1015.29
2019-03-27T03:50:10.573Z,1015.35
2019-03-27T03:51:10.563Z,1015.32
2019-03-27T03:52:10.567Z,1015.32
2019-03-27T03:53:10.540Z,1015.34
2019-03-27T03:54:10.527Z,1015.35
2019-03-27T03:55:10.517Z,1015.36
2019-03-27T03:56:10.540Z,1015.37
2019-03-27T03:57:10.493Z,1015.36
2019-03-27T03:58:10.482Z,1015.34
2019-03-27T03:59:10.471Z,1015.35
2019-03-27T04:00:10.463Z,1015.35
2019-03-27T04:01:10.449Z,1015.34
2019-03-27T04:02:10.456Z,1015.37
2019-03-27T04:03:10.426Z,1015.40
2019-03-27T04:04:10.417Z,1015.39
2019-03-27T04:05:10.409Z,1015.43
2019-03-27T04:06:10.396Z,1015.49
2019-03-27T04:07:10.397Z,1015.49
2019-03-27T04:08:10.370Z,1015.47
2019-03-27T04:09:10.357Z,1015.48
2019-03-27T04:10:10.347Z,1015.46
2019-03-27T04:11:10.337Z,1015.44
2019-03-27T04:12:10.362Z,1015.43
2019-03-27T04:13:10.311Z,1015.41
2019-03-27T04:14:10.303Z,1015.42
2019-03-27T04:15:10.293Z,1015.39
2019-03-27T04:16:10.287Z,1015.44
2019-03-27T04:17:17.499Z,1015.41
2019-03-27T04:18:11.272Z,1015.43
2019-03-27T04:19:10.246Z,1015.44
2019-03-27T04:20:10.235Z,1015.48
2019-03-27T04:21:10.228Z,1015.49
2019-03-27T04:22:10.222Z,1015.46
2019-03-27T04:23:10.220Z,1015.54
2019-03-27T04:24:10.190Z,1015.57
2019-03-27T04:25:10.186Z,1015.49
2019-03-27T04:26:10.917Z,1015.49
2019-03-27T04:27:10.155Z,1015.51
2019-03-27T04:28:10.174Z,1015.46
2019-03-27T04:29:10.135Z,1015.46
2019-03-27T04:30:10.121Z,1015.51
2019-03-27T04:31:10.113Z,1015.53
2019-03-27T04:32:10.104Z,1015.52
2019-03-27T04:33:10.091Z,1015.55
2019-03-27T04:34:10.094Z,1015.48
2019-03-27T04:35:10.069Z,1015.48
2019-03-27T04:36:10.056Z,1015.50
2019-03-27T04:37:10.042Z,1015.52
2019-03-27T04:38:10.036Z,1015.48
2019-03-27T04:39:10.063Z,1015.47
2019-03-27T04:40:10.010Z,1015.48
2019-03-27T04:41:09.998Z,1015.46
2019-03-27T04:42:09.988Z,1015.46
2019-03-27T04:43:09.977Z,1015.48
2019-03-27T04:44:09.992Z,1015.47
2019-03-27T04:45:09.961Z,1015.47
2019-03-27T04:46:09.941Z,1015.53
2019-03-27T04:47:09.936Z,1015.51
2019-03-27T04:48:09.920Z,1015.53
2019-03-27T04:49:09.912Z,1015.52
2019-03-27T04:50:09.914Z,1015.53
2019-03-27T04:51:09.887Z,1015.58
2019-03-27T04:52:09.875Z,1015.53
2019-03-27T04:53:09.862Z,1015.58
2019-03-27T04:54:09.852Z,1015.51
2019-03-27T04:55:09.868Z,1015.53
2019-03-27T04:56:09.828Z,1015.58
2019-03-27T04:57:09.817Z,1015.57
2019-03-27T04:58:09.806Z,1015.55
2019-03-27T04:59:09.797Z,1015.53
2019-03-27T05:00:09.868Z,1015.54
2019-03-27T05:01:09.790Z,1015.58
2019-03-27T05:02:09.763Z,1015.60
2019-03-27T05:03:09.754Z,1015.64
2019-03-27T05:04:09.744Z,1015.71
2019-03-27T05:05:09.730Z,1015.70
2019-03-27T05:06:09.731Z,1015.77
2019-03-27T05:07:09.706Z,1015.73
2019-03-27T05:08:09.696Z,1015.75
2019-03-27T05:09:09.685Z,1015.75
2019-03-27T05:10:09.673Z,1015.75
2019-03-27T05:11:09.690Z,1015.79
2019-03-27T05:12:09.653Z,1015.79
2019-03-27T05:13:09.642Z,1015.82
2019-03-27T05:14:09.628Z,1015.83
2019-03-27T05:15:09.614Z,1015.82
2019-03-27T05:16:09.606Z,1015.80
2019-03-27T05:17:09.619Z,1015.85
2019-03-27T05:18:09.588Z,1015.79
2019-03-27T05:19:09.571Z,1015.80
2019-03-27T05:20:09.562Z,1015.82
2019-03-27T05:21:09.550Z,1015.82
2019-03-27T05:22:09.538Z,1015.85
2019-03-27T05:23:09.544Z,1015.87
2019-03-27T05:24:09.515Z,1015.86
2019-03-27T05:25:09.506Z,1015.85
2019-03-27T05:26:09.493Z,1015.86
2019-03-27T05:27:09.483Z,1015.92
2019-03-27T05:28:09.489Z,1015.91
2019-03-27T05:29:09.460Z,1015.94
2019-03-27T05:30:09.456Z,1015.91
2019-03-27T05:31:09.437Z,1015.93
2019-03-27T05:32:09.426Z,1015.94
2019-03-27T05:33:09.433Z,1015.94
2019-03-27T05:34:09.404Z,1015.93
2019-03-27T05:35:09.394Z,1015.92
2019-03-27T05:36:09.385Z,1015.93
2019-03-27T05:37:09.372Z,1015.94
2019-03-27T05:38:09.393Z,1015.97
2019-03-27T05:39:09.347Z,1015.97
2019-03-27T05:40:09.336Z,1015.95
2019-03-27T05:41:09.325Z,1015.93
2019-03-27T05:42:09.314Z,1015.94
2019-03-27T05:43:09.301Z,1015.97
2019-03-27T05:44:09.318Z,1015.99
2019-03-27T05:45:09.281Z,1015.99
2019-03-27T05:46:09.270Z,1016.03
2019-03-27T05:47:09.264Z,1016.01
2019-03-27T05:48:09.245Z,1016.02
2019-03-27T05:49:09.235Z,1016.04
2019-03-27T05:50:09.239Z,1016.11
2019-03-27T05:51:09.219Z,1016.06
2019-03-27T05:52:09.205Z,1016.11
2019-03-27T05:53:09.190Z,1016.04
2019-03-27T05:54:09.180Z,1016.10
2019-03-27T05:55:09.184Z,1016.13
2019-03-27T05:56:09.156Z,1016.12
2019-03-27T05:57:09.146Z,1016.17
2019-03-27T05:58:09.133Z,1016.17
2019-03-27T05:59:09.123Z,1016.19
2019-03-27T06:00:09.139Z,1016.19
2019-03-27T06:01:09.098Z,1016.24
2019-03-27T06:02:09.086Z,1016.20
2019-03-27T06:03:09.076Z,1016.24
2019-03-27T06:04:09.064Z,1016.23
2019-03-27T06:05:09.062Z,1016.29
2019-03-27T06:06:09.072Z,1016.29
2019-03-27T06:07:09.031Z,1016.36
2019-03-27T06:08:09.021Z,1016.36
2019-03-27T06:09:09.007Z,1016.41
2019-03-27T06:10:08.999Z,1016.37
2019-03-27T06:11:08.986Z,1016.38
2019-03-27T06:12:09.002Z,1016.38
2019-03-27T06:13:08.962Z,1016.40
2019-03-27T06:14:08.951Z,1016.39
2019-03-27T06:15:08.941Z,1016.46
2019-03-27T06:16:08.931Z,1016.44
2019-03-27T06:17:08.918Z,1016.44
2019-03-27T06:18:13.343Z,1016.43
2019-03-27T06:19:08.895Z,1016.46
2019-03-27T06:20:08.887Z,1016.44
2019-03-27T06:21:08.872Z,1016.41
2019-03-27T06:22:08.863Z,1016.38
2019-03-27T06:23:08.866Z,1016.42
2019-03-27T06:24:08.840Z,1016.40
2019-03-27T06:25:08.827Z,1016.45
2019-03-27T06:26:08.821Z,1016.40
2019-03-27T06:27:08.806Z,1016.52
2019-03-27T06:28:08.823Z,1016.49
2019-03-27T06:29:08.783Z,1016.51
2019-03-27T06:30:08.773Z,1016.55
2019-03-27T06:31:08.758Z,1016.58
2019-03-27T06:32:08.752Z,1016.57
2019-03-27T06:33:08.741Z,1016.57
2019-03-27T06:34:17.813Z,1016.58
2019-03-27T06:35:08.714Z,1016.61
2019-03-27T06:36:17.093Z,1016.60
2019-03-27T06:37:08.692Z,1016.62
2019-03-27T06:38:08.680Z,1016.57
2019-03-27T06:39:08.700Z,1016.62
2019-03-27T06:40:08.660Z,1016.57
2019-03-27T06:41:08.648Z,1016.54
2019-03-27T06:42:08.637Z,1016.53
2019-03-27T06:43:08.624Z,1016.54
2019-03-27T06:44:08.613Z,1016.56
2019-03-27T06:45:08.619Z,1016.57
2019-03-27T06:46:08.590Z,1016.60
2019-03-27T06:47:08.580Z,1016.59
2019-03-27T06:48:08.567Z,1016.62
2019-03-27T06:49:08.559Z,1016.63
2019-03-27T06:50:08.561Z,1016.67
2019-03-27T06:51:08.536Z,1016.64
2019-03-27T06:52:08.523Z,1016.63
2019-03-27T06:53:08.512Z,1016.60
2019-03-27T06:54:08.506Z,1016.61
2019-03-27T06:55:08.519Z,1016.60
2019-03-27T06:56:08.481Z,1016.61
2019-03-27T06:57:08.470Z,1016.60
2019-03-27T06:58:08.455Z,1016.65
2019-03-27T06:59:08.446Z,1016.64
2019-03-27T07:00:08.433Z,1016.66
2019-03-27T07:01:08.450Z,1016.68
2019-03-27T07:02:08.411Z,1016.68
2019-03-27T07:03:08.400Z,1016.70
2019-03-27T07:04:10.893Z,1016.69
2019-03-27T07:05:08.377Z,1016.73
2019-03-27T07:06:08.366Z,1016.74
2019-03-27T07:07:08.373Z,1016.74
2019-03-27T07:08:08.349Z,1016.74
2019-03-27T07:09:08.332Z,1016.82
2019-03-27T07:10:08.321Z,1016.82
2019-03-27T07:11:08.310Z,1016.79
2019-03-27T07:12:20.552Z,1016.82
2019-03-27T07:13:09.286Z,1016.79
2019-03-27T07:14:08.279Z,1016.79
2019-03-27T07:15:08.267Z,1016.85
2019-03-27T07:16:08.254Z,1016.79
2019-03-27T07:17:08.244Z,1016.82
2019-03-27T07:18:08.263Z,1016.86
2019-03-27T07:19:08.222Z,1016.92
2019-03-27T07:20:16.635Z,1016.90
2019-03-27T07:21:08.201Z,1016.91
2019-03-27T07:22:08.188Z,1016.92
2019-03-27T07:23:08.177Z,1016.92
2019-03-27T07:24:08.182Z,1016.93
2019-03-27T07:25:08.154Z,1016.98
2019-03-27T07:26:08.143Z,1017.01
2019-03-27T07:27:08.131Z,1016.99
2019-03-27T07:28:08.121Z,1017.01
2019-03-27T07:29:08.146Z,1017.00
2019-03-27T07:30:08.098Z,1016.98
2019-03-27T07:31:08.092Z,1016.98
2019-03-27T07:32:08.077Z,1017.00
2019-03-27T07:33:08.070Z,1017.03
2019-03-27T07:34:08.054Z,1017.04
2019-03-27T07:35:08.061Z,1017.05
2019-03-27T07:36:08.031Z,1017.04
2019-03-27T07:37:08.022Z,1017.06
2019-03-27T07:38:08.008Z,1017.06
2019-03-27T07:39:11.144Z,1017.06
2019-03-27T07:40:08.012Z,1017.11
2019-03-27T07:41:07.977Z,1017.09
2019-03-27T07:42:07.965Z,1017.05
2019-03-27T07:43:07.954Z,1017.08
2019-03-27T07:44:07.944Z,1017.07
2019-03-27T07:45:07.931Z,1017.04
2019-03-27T07:46:07.938Z,1017.03
2019-03-27T07:47:07.918Z,1017.03
2019-03-27T07:48:07.900Z,1017.06
2019-03-27T07:49:07.887Z,1017.08
2019-03-27T07:50:07.875Z,1017.03
2019-03-27T07:51:07.890Z,1017.10
2019-03-27T07:52:07.852Z,1017.05
2019-03-27T07:53:07.841Z,1017.10
2019-03-27T07:54:07.829Z,1017.02
2019-03-27T07:55:18.651Z,1017.16
2019-03-27T07:56:08.834Z,1017.11
2019-03-27T07:57:07.796Z,1017.11
2019-03-27T07:58:07.786Z,1017.10
2019-03-27T07:59:07.774Z,1017.20
2019-03-27T08:00:07.767Z,1017.18
2019-03-27T08:01:07.752Z,1017.16
2019-03-27T08:02:07.759Z,1017.15
2019-03-27T08:03:07.735Z,1017.21
2019-03-27T08:04:07.717Z,1017.21
2019-03-27T08:05:07.708Z,1017.17
2019-03-27T08:06:07.694Z,1017.19
2019-03-27T08:07:07.701Z,1017.16
2019-03-27T08:08:07.674Z,1017.15
2019-03-27T08:09:07.660Z,1017.15
2019-03-27T08:10:07.650Z,1017.22
2019-03-27T08:11:07.640Z,1017.14
2019-03-27T08:12:07.668Z,1017.21
2019-03-27T08:13:07.619Z,1017.07
2019-03-27T08:14:07.606Z,1017.13
2019-03-27T08:15:07.597Z,1017.14
2019-03-27T08:16:07.587Z,1017.12
2019-03-27T08:17:07.592Z,1017.10
2019-03-27T08:18:07.570Z,1017.15
2019-03-27T08:19:08.229Z,1017.11
2019-03-27T08:20:07.537Z,1017.09
2019-03-27T08:21:07.525Z,1017.11
2019-03-27T08:22:07.545Z,1017.08
2019-03-27T08:23:07.505Z,1017.09
2019-03-27T08:24:07.493Z,1017.15
2019-03-27T08:25:07.482Z,1017.14
2019-03-27T08:26:07.472Z,1017.10
2019-03-27T08:27:07.462Z,1017.15
2019-03-27T08:28:07.480Z,1017.11
2019-03-27T08:29:07.440Z,1017.06
2019-03-27T08:30:07.433Z,1017.10
2019-03-27T08:31:07.414Z,1017.09
2019-03-27T08:32:07.407Z,1017.11
2019-03-27T08:33:07.392Z,1017.04
2019-03-27T08:34:07.400Z,1017.04
2019-03-27T08:35:07.369Z,1017.05
2019-03-27T08:36:07.363Z,1017.07
2019-03-27T08:37:07.352Z,1017.06
2019-03-27T08:38:07.336Z,1017.09
2019-03-27T08:39:07.353Z,1017.09
2019-03-27T08:40:07.315Z,1017.05
2019-03-27T08:41:07.304Z,1017.05
2019-03-27T08:42:07.291Z,1017.06
2019-03-27T08:43:20.287Z,1017.05
2019-03-27T08:44:08.293Z,1017.10
2019-03-27T08:45:07.257Z,1017.10
2019-03-27T08:46:07.255Z,1017.07
2019-03-27T08:47:07.237Z,1017.09
2019-03-27T08:48:07.226Z,1017.07
2019-03-27T08:49:20.766Z,1017.08
2019-03-27T08:50:08.219Z,1017.13
2019-03-27T08:51:07.189Z,1017.13
2019-03-27T08:52:07.181Z,1017.15
2019-03-27T08:53:07.168Z,1017.16
2019-03-27T08:54:07.162Z,1017.20
2019-03-27T08:55:07.166Z,1017.19
2019-03-27T08:56:07.135Z,1017.15
2019-03-27T08:57:07.123Z,1017.17
2019-03-27T08:58:07.111Z,1017.20
2019-03-27T08:59:07.098Z,1017.24
2019-03-27T09:00:07.117Z,1017.20
2019-03-27T09:01:07.078Z,1017.19
2019-03-27T09:02:07.067Z,1017.18
2019-03-27T09:03:07.054Z,1017.23
2019-03-27T09:04:07.047Z,1017.19
2019-03-27T09:05:07.034Z,1017.20
2019-03-27T09:06:07.051Z,1017.22
2019-03-27T09:07:07.009Z,1017.21
2019-03-27T09:08:07.002Z,1017.24
2019-03-27T09:09:06.993Z,1017.21
2019-03-27T09:10:06.979Z,1017.23
2019-03-27T09:11:06.967Z,1017.21
2019-03-27T09:12:06.973Z,1017.26
2019-03-27T09:13:06.944Z,1017.23
2019-03-27T09:14:06.932Z,1017.22
2019-03-27T09:15:06.919Z,1017.23
2019-03-27T09:16:06.914Z,1017.24
2019-03-27T09:17:06.913Z,1017.20
2019-03-27T09:18:06.890Z,1017.18
2019-03-27T09:19:06.874Z,1017.23
2019-03-27T09:20:06.864Z,1017.15
2019-03-27T09:21:06.856Z,1017.15
2019-03-27T09:22:06.872Z,1017.09
2019-03-27T09:23:06.833Z,1017.11
2019-03-27T09:24:06.819Z,1017.11
2019-03-27T09:25:06.809Z,1017.17
2019-03-27T09:26:06.796Z,1017.19
2019-03-27T09:27:06.786Z,1017.18
2019-03-27T09:28:06.802Z,1017.16
2019-03-27T09:29:08.401Z,1017.14
2019-03-27T09:30:06.751Z,1017.17
2019-03-27T09:31:06.740Z,1017.16
2019-03-27T09:32:06.732Z,1017.15
2019-03-27T09:33:06.718Z,1017.16
2019-03-27T09:34:06.722Z,1017.16
2019-03-27T09:35:06.694Z,1017.14
2019-03-27T09:36:06.863Z,1017.16
2019-03-27T09:37:06.674Z,1017.21
2019-03-27T09:38:06.663Z,1017.20
2019-03-27T09:39:06.664Z,1017.19
2019-03-27T09:40:06.640Z,1017.21
2019-03-27T09:41:06.628Z,1017.21
2019-03-27T09:42:06.617Z,1017.23
2019-03-27T09:43:06.604Z,1017.17
2019-03-27T09:44:06.621Z,1017.22
2019-03-27T09:45:06.580Z,1017.19
2019-03-27T09:46:06.569Z,1017.20
2019-03-27T09:47:06.588Z,1017.15
2019-03-27T09:48:06.547Z,1017.18
2019-03-27T09:49:06.534Z,1017.25
2019-03-27T09:50:06.539Z,1017.18
2019-03-27T09:51:06.513Z,1017.16
2019-03-27T09:52:06.501Z,1017.15
2019-03-27T09:53:06.496Z,1017.15
2019-03-27T09:54:06.478Z,1017.17
2019-03-27T09:55:06.495Z,1017.18
2019-03-27T09:56:18.525Z,1017.20
2019-03-27T09:57:07.443Z,1017.15
2019-03-27T09:58:06.433Z,1017.16
2019-03-27T09:59:06.425Z,1017.14
2019-03-27T10:00:06.414Z,1017.16
2019-03-27T10:01:06.426Z,1017.17
2019-03-27T10:02:06.390Z,1017.15
2019-03-27T10:03:06.377Z,1017.17
2019-03-27T10:04:06.371Z,1017.13
2019-03-27T10:05:06.353Z,1017.09
2019-03-27T10:06:06.346Z,1017.17
2019-03-27T10:07:06.348Z,1017.23
2019-03-27T10:08:06.321Z,1017.23
2019-03-27T10:09:06.308Z,1017.20
2019-03-27T10:10:06.299Z,1017.21
2019-03-27T10:11:06.288Z,1017.19
2019-03-27T10:12:06.291Z,1017.19
2019-03-27T10:13:06.264Z,1017.18
2019-03-27T10:14:06.251Z,1017.16
2019-03-27T10:15:06.240Z,1017.19
2019-03-27T10:16:06.228Z,1017.17
2019-03-27T10:17:06.246Z,1017.20
2019-03-27T10:18:06.206Z,1017.24
2019-03-27T10:19:06.195Z,1017.22
2019-03-27T10:20:06.187Z,1017.22
2019-03-27T10:21:06.172Z,1017.23
2019-03-27T10:22:06.163Z,1017.24
2019-03-27T10:23:06.175Z,1017.25
2019-03-27T10:24:06.137Z,1017.25
2019-03-27T10:25:06.127Z,1017.25
2019-03-27T10:26:06.115Z,1017.24
2019-03-27T10:27:06.106Z,1017.23
2019-03-27T10:28:06.100Z,1017.23
2019-03-27T10:29:06.096Z,1017.21
2019-03-27T10:30:06.076Z,1017.16
2019-03-27T10:31:06.059Z,1017.21
2019-03-27T10:32:06.048Z,1017.15
2019-03-27T10:33:06.036Z,1017.19
2019-03-27T10:34:06.045Z,1017.23
2019-03-27T10:35:06.015Z,1017.20
2019-03-27T10:36:06.009Z,1017.14
2019-03-27T10:37:05.991Z,1017.23
2019-03-27T10:38:05.981Z,1017.22
2019-03-27T10:39:05.999Z,1017.16
2019-03-27T10:40:05.957Z,1017.26
2019-03-27T10:41:05.948Z,1017.28
2019-03-27T10:42:05.935Z,1017.30
2019-03-27T10:43:05.923Z,1017.28
2019-03-27T10:44:05.913Z,1017.35
2019-03-27T10:45:05.928Z,1017.36
2019-03-27T10:46:05.892Z,1017.35
2019-03-27T10:47:05.879Z,1017.33
2019-03-27T10:48:05.867Z,1017.30
2019-03-27T10:49:05.855Z,1017.31
2019-03-27T10:50:16.921Z,1017.32
2019-03-27T10:51:06.862Z,1017.35
2019-03-27T10:52:05.822Z,1017.27
2019-03-27T10:53:05.815Z,1017.35
2019-03-27T10:54:05.802Z,1017.32
2019-03-27T10:55:05.790Z,1017.35
2019-03-27T10:56:05.781Z,1017.26
2019-03-27T10:57:05.806Z,1017.31
2019-03-27T10:58:05.754Z,1017.33
2019-03-27T10:59:05.746Z,1017.34
2019-03-27T11:00:05.732Z,1017.28
2019-03-27T11:01:07.334Z,1017.31
2019-03-27T11:02:05.708Z,1017.32
2019-03-27T11:03:05.727Z,1017.27
2019-03-27T11:04:05.686Z,1017.28
2019-03-27T11:05:05.674Z,1017.28
2019-03-27T11:06:05.665Z,1017.29
2019-03-27T11:07:05.652Z,1017.39
2019-03-27T11:08:05.642Z,1017.28
2019-03-27T11:09:05.647Z,1017.27
2019-03-27T11:10:05.618Z,1017.32
2019-03-27T11:11:05.606Z,1017.25
2019-03-27T11:12:05.598Z,1017.26
2019-03-27T11:13:05.589Z,1017.35
2019-03-27T11:14:05.601Z,1017.30
2019-03-27T11:15:05.563Z,1017.29
2019-03-27T11:16:05.556Z,1017.33
2019-03-27T11:17:05.543Z,1017.28
2019-03-27T11:18:05.527Z,1017.27
2019-03-27T11:19:05.517Z,1017.25
2019-03-27T11:20:05.534Z,1017.16
2019-03-27T11:21:05.493Z,1017.23
2019-03-27T11:22:05.482Z,1017.22
2019-03-27T11:23:05.470Z,1017.21
2019-03-27T11:24:05.461Z,1017.19
2019-03-27T11:25:05.448Z,1017.22
2019-03-27T11:26:05.455Z,1017.25
2019-03-27T11:27:05.459Z,1017.23
2019-03-27T11:28:05.418Z,1017.21
2019-03-27T11:29:05.403Z,1017.18
2019-03-27T11:30:05.391Z,1017.24
2019-03-27T11:31:05.420Z,1017.22
2019-03-27T11:32:05.375Z,1017.21
2019-03-27T11:33:05.359Z,1017.26
2019-03-27T11:34:05.366Z,1017.26
2019-03-27T11:35:05.353Z,1017.24
2019-03-27T11:36:05.343Z,1017.31
2019-03-27T11:37:05.376Z,1017.29
2019-03-27T11:38:05.321Z,1017.30
2019-03-27T11:39:05.299Z,1017.30
2019-03-27T11:40:05.282Z,1017.27
2019-03-27T11:41:05.269Z,1017.27
2019-03-27T11:42:05.282Z,1017.28
2019-03-27T11:43:05.247Z,1017.29
2019-03-27T11:44:05.234Z,1017.29
2019-03-27T11:45:05.222Z,1017.29
2019-03-27T11:46:13.727Z,1017.29
2019-03-27T11:47:05.217Z,1017.29
2019-03-27T11:48:08.043Z,1017.33
2019-03-27T11:49:05.182Z,1017.29
2019-03-27T11:50:05.173Z,1017.27
2019-03-27T11:51:05.157Z,1017.30
2019-03-27T11:52:05.180Z,1017.31
2019-03-27T11:53:05.133Z,1017.27
2019-03-27T11:54:05.123Z,1017.27
2019-03-27T11:55:05.114Z,1017.27
2019-03-27T11:56:05.097Z,1017.28
2019-03-27T11:57:05.087Z,1017.25
2019-03-27T11:58:05.105Z,1017.27
2019-03-27T11:59:05.067Z,1017.22
2019-03-27T12:00:05.054Z,1017.24
2019-03-27T12:01:05.047Z,1017.24
2019-03-27T12:02:05.030Z,1017.28
2019-03-27T12:03:05.022Z,1017.30
2019-03-27T12:04:05.026Z,1017.26
2019-03-27T12:05:04.999Z,1017.26